createdAt,value
2019-02-21T00:01:37.602Z,5.40
2019-02-21T00:04:05.165Z,7.33
2019-02-21T00:06:32.759Z,5.90
2019-02-21T00:09:00.984Z,5.37
2019-02-21T00:11:28.444Z,5.80
2019-02-21T00:13:55.946Z,6.23
2019-02-21T00:16:23.412Z,6.20
2019-02-21T00:18:50.875Z,6.77
2019-02-21T00:21:18.438Z,6.07
2019-02-21T00:23:45.984Z,6.63
2019-02-21T00:26:13.535Z,7.00
2019-02-21T00:28:41.010Z,5.40
2019-02-21T00:31:08.576Z,7.60
2019-02-21T00:33:36.796Z,5.57
2019-02-21T00:36:04.259Z,6.73
2019-02-21T00:38:32.495Z,6.03
2019-02-21T00:40:59.947Z,6.33
2019-02-21T00:43:27.502Z,6.77
2019-02-21T00:45:55.666Z,7.87
2019-02-21T00:48:23.110Z,7.30
2019-02-21T00:50:50.628Z,6.50
2019-02-21T00:53:18.092Z,6.53
2019-02-21T00:55:47.184Z,4.93
2019-02-21T00:58:14.779Z,7.90
2019-02-21T01:00:46.611Z,9.77
2019-02-21T01:03:10.490Z,5.27
2019-02-21T01:05:38.052Z,6.50
2019-02-21T01:08:05.500Z,7.63
2019-02-21T01:10:32.977Z,5.00
2019-02-21T01:13:00.426Z,6.63
2019-02-21T01:15:27.890Z,8.83
2019-02-21T01:17:55.346Z,6.80
2019-02-21T01:20:22.850Z,7.53
2019-02-21T01:22:51.083Z,5.87
2019-02-21T01:25:18.537Z,7.23
2019-02-21T01:27:46.042Z,8.03
2019-02-21T01:30:13.585Z,6.57
2019-02-21T01:32:41.082Z,6.40
2019-02-21T01:35:09.317Z,8.10
2019-02-21T01:37:36.789Z,6.57
2019-02-21T01:40:04.358Z,7.70
2019-02-21T01:42:31.831Z,5.80
2019-02-21T01:44:59.392Z,5.90
2019-02-21T01:47:26.840Z,6.53
2019-02-21T01:49:54.300Z,6.87
2019-02-21T01:52:21.782Z,8.53
2019-02-21T01:54:49.348Z,7.83
2019-02-21T01:57:16.805Z,6.13
2019-02-21T01:59:44.358Z,8.90
2019-02-21T02:02:11.866Z,8.50
2019-02-21T02:04:40.330Z,7.50
2019-02-21T02:07:07.815Z,9.17
2019-02-21T02:09:36.052Z,11.17
2019-02-21T02:12:04.288Z,8.63
2019-02-21T02:14:31.748Z,9.77
2019-02-21T02:16:59.228Z,9.93
2019-02-21T02:19:26.728Z,11.23
2019-02-21T02:21:54.168Z,8.70
2019-02-21T02:24:21.635Z,11.23
2019-02-21T02:26:49.085Z,9.30
2019-02-21T02:29:16.561Z,9.27
2019-02-21T02:31:44.034Z,11.27
2019-02-21T02:34:11.510Z,16.33
2019-02-21T02:36:38.970Z,11.63
2019-02-21T02:39:06.522Z,12.53
2019-02-21T02:41:33.982Z,11.53
2019-02-21T02:44:01.449Z,13.27
2019-02-21T02:46:28.943Z,10.90
2019-02-21T02:48:56.399Z,10.70
2019-02-21T02:51:24.618Z,12.93
2019-02-21T02:53:52.087Z,11.63
2019-02-21T02:56:19.556Z,12.77
2019-02-21T02:58:47.133Z,9.13
2019-02-21T03:01:14.689Z,12.70
2019-02-21T03:03:42.156Z,9.97
2019-02-21T03:06:09.615Z,15.47
2019-02-21T03:08:37.190Z,13.73
2019-02-21T03:11:06.416Z,8.60
2019-02-21T03:13:34.670Z,9.33
2019-02-21T03:16:02.136Z,10.57
2019-02-21T03:18:29.676Z,12.93
2019-02-21T03:20:57.259Z,11.37
2019-02-21T03:23:25.081Z,9.20
2019-02-21T03:25:52.543Z,11.40
2019-02-21T03:28:20.010Z,12.50
2019-02-21T03:30:47.478Z,11.97
2019-02-21T03:33:14.934Z,8.30
2019-02-21T03:35:42.395Z,8.03
2019-02-21T03:38:09.854Z,10.77
2019-02-21T03:40:37.346Z,11.33
2019-02-21T03:43:04.787Z,11.60
2019-02-21T03:45:32.246Z,12.27
2019-02-21T03:47:59.741Z,11.93
2019-02-21T03:50:27.208Z,14.03
2019-02-21T03:52:54.699Z,15.03
2019-02-21T03:55:22.923Z,9.27
2019-02-21T03:57:50.389Z,10.93
2019-02-21T04:00:17.880Z,9.50
2019-02-21T04:02:46.178Z,12.93
2019-02-21T04:05:14.457Z,11.63
2019-02-21T04:07:42.688Z,11.73
2019-02-21T04:10:10.184Z,9.03
2019-02-21T04:12:37.649Z,10.17
2019-02-21T04:15:06.083Z,14.67
2019-02-21T04:17:33.554Z,9.83
2019-02-21T04:20:01.179Z,12.33
2019-02-21T04:22:28.573Z,10.30
2019-02-21T04:24:56.067Z,10.33
2019-02-21T04:27:23.621Z,10.73
2019-02-21T04:29:51.116Z,8.87
2019-02-21T04:32:18.574Z,10.57
2019-02-21T04:34:46.036Z,9.20
2019-02-21T04:37:13.493Z,10.77
2019-02-21T04:39:42.454Z,8.37
2019-02-21T04:42:09.923Z,8.43
2019-02-21T04:44:37.383Z,12.40
2019-02-21T04:47:04.845Z,9.50
2019-02-21T04:49:32.325Z,12.43
2019-02-21T04:51:59.770Z,12.90
2019-02-21T04:54:27.242Z,15.80
2019-02-21T04:56:54.705Z,9.50
2019-02-21T04:59:22.280Z,12.67
2019-02-21T05:01:49.737Z,10.03
2019-02-21T05:04:17.193Z,13.20
2019-02-21T05:06:44.660Z,10.80
2019-02-21T05:09:12.134Z,12.40
2019-02-21T05:11:39.760Z,12.50
2019-02-21T05:14:07.226Z,14.40
2019-02-21T05:16:34.672Z,11.97
2019-02-21T05:19:02.158Z,13.03
2019-02-21T05:21:29.895Z,13.10
2019-02-21T05:23:57.406Z,16.00
2019-02-21T05:26:25.638Z,10.90
2019-02-21T05:28:53.795Z,13.43
2019-02-21T05:31:27.659Z,12.33
2019-02-21T05:33:55.110Z,11.33
2019-02-21T05:36:24.464Z,14.90
2019-02-21T05:38:58.380Z,15.30
2019-02-21T05:41:32.120Z,13.97
2019-02-21T05:44:14.283Z,11.67
2019-02-21T05:46:45.125Z,14.53
2019-02-21T05:49:32.098Z,11.33
2019-02-21T05:52:01.128Z,11.13
2019-02-21T05:54:31.324Z,17.47
2019-02-21T05:57:02.089Z,13.50
2019-02-21T05:59:30.300Z,13.37
2019-02-21T06:01:57.827Z,11.53
2019-02-21T06:04:31.703Z,15.67
2019-02-21T06:07:04.728Z,12.17
2019-02-21T06:09:34.883Z,15.67
2019-02-21T06:12:02.343Z,15.03
2019-02-21T06:14:42.632Z,16.00
2019-02-21T06:17:20.782Z,14.93
2019-02-21T06:19:49.018Z,16.13
2019-02-21T06:22:19.391Z,14.93
2019-02-21T06:24:49.234Z,13.73
2019-02-21T06:27:26.603Z,15.33
2019-02-21T06:29:54.969Z,14.77
2019-02-21T06:32:22.451Z,15.93
2019-02-21T06:34:52.281Z,18.10
2019-02-21T06:37:17.421Z,15.43
2019-02-21T06:39:44.872Z,19.37
2019-02-21T06:42:12.346Z,17.10
2019-02-21T06:44:40.611Z,15.20
2019-02-21T06:47:08.106Z,18.60
2019-02-21T06:49:35.648Z,19.13
2019-02-21T06:52:04.508Z,18.92
2019-02-21T06:54:31.980Z,17.13
2019-02-21T06:57:00.212Z,18.40
2019-02-21T06:59:28.443Z,18.30
2019-02-21T07:01:55.906Z,20.00
2019-02-21T07:04:23.352Z,17.03
2019-02-21T07:06:50.829Z,19.20
2019-02-21T07:09:18.286Z,16.70
2019-02-21T07:11:46.126Z,18.07
2019-02-21T07:14:14.752Z,17.80
2019-02-21T07:16:42.233Z,20.27
2019-02-21T07:19:10.828Z,20.57
2019-02-21T07:21:38.059Z,19.43
2019-02-21T07:24:05.534Z,19.13
2019-02-21T07:26:32.999Z,20.60
2019-02-21T07:29:00.569Z,19.70
2019-02-21T07:31:29.662Z,21.00
2019-02-21T07:33:55.699Z,22.23
2019-02-21T07:36:24.661Z,22.47
2019-02-21T07:38:52.121Z,24.37
2019-02-21T07:41:19.710Z,22.27
2019-02-21T07:43:48.268Z,22.73
2019-02-21T07:46:15.766Z,25.07
2019-02-21T07:48:43.221Z,18.60
2019-02-21T07:51:13.398Z,21.23
2019-02-21T07:53:38.257Z,23.80
2019-02-21T07:56:05.701Z,23.77
2019-02-21T07:58:33.186Z,20.37
2019-02-21T08:01:00.641Z,26.77
2019-02-21T08:03:32.162Z,25.80
2019-02-21T08:05:56.455Z,26.40
2019-02-21T08:08:23.951Z,22.03
2019-02-21T08:10:51.420Z,21.83
2019-02-21T08:13:18.877Z,20.93
2019-02-21T08:15:46.433Z,25.33
2019-02-21T08:18:13.885Z,22.77
2019-02-21T08:20:41.419Z,21.90
2019-02-21T08:23:10.948Z,20.23
2019-02-21T08:25:36.373Z,23.80
2019-02-21T08:28:03.879Z,22.23
2019-02-21T08:30:33.071Z,23.93
2019-02-21T08:35:54.034Z,31.40
2019-02-21T08:38:19.567Z,23.87
2019-02-21T08:40:47.026Z,25.10
2019-02-21T08:43:14.529Z,22.87
2019-02-21T08:45:42.064Z,20.63
2019-02-21T08:48:09.634Z,27.03
2019-02-21T08:50:37.937Z,25.17
2019-02-21T08:53:07.254Z,26.80
2019-02-21T08:55:35.481Z,26.60
2019-02-21T08:58:04.390Z,20.98
2019-02-21T09:00:32.039Z,22.57
2019-02-21T09:02:59.345Z,22.27
2019-02-21T09:05:27.580Z,21.10
2019-02-21T09:07:55.158Z,29.17
2019-02-21T09:10:22.623Z,27.47
2019-02-21T09:12:50.076Z,25.43
2019-02-21T09:15:17.531Z,22.37
2019-02-21T09:17:45.107Z,23.50
2019-02-21T09:20:12.560Z,27.60
2019-02-21T09:22:40.825Z,24.17
2019-02-21T09:25:08.976Z,28.70
2019-02-21T09:27:36.443Z,24.10
2019-02-21T09:30:05.701Z,21.00
2019-02-21T09:32:33.168Z,25.40
2019-02-21T09:35:01.831Z,23.03
2019-02-21T09:37:30.106Z,25.87
2019-02-21T09:39:57.589Z,28.07
2019-02-21T09:42:25.046Z,28.03
2019-02-21T09:44:52.514Z,25.50
2019-02-21T09:47:20.799Z,27.33
2019-02-21T09:49:49.027Z,30.33
2019-02-21T09:52:17.345Z,23.87
2019-02-21T09:54:47.366Z,25.43
2019-02-21T09:57:13.443Z,25.33
2019-02-21T09:59:40.641Z,24.70
2019-02-21T10:02:08.170Z,26.17
2019-02-21T10:04:35.692Z,24.83
2019-02-21T10:07:04.661Z,27.87
2019-02-21T10:09:32.148Z,30.77
2019-02-21T10:11:59.709Z,25.07
2019-02-21T10:14:27.277Z,24.97
2019-02-21T10:16:54.943Z,31.07
2019-02-21T10:19:22.493Z,26.93
2019-02-21T10:21:50.033Z,28.53
2019-02-21T10:24:17.503Z,27.20
2019-02-21T10:26:44.958Z,25.60
2019-02-21T10:29:12.436Z,29.17
2019-02-21T10:31:39.905Z,26.40
2019-02-21T10:34:07.368Z,23.63
2019-02-21T10:36:34.822Z,28.13
2019-02-21T10:39:02.289Z,25.77
2019-02-21T10:41:29.753Z,26.20
2019-02-21T10:43:57.331Z,24.17
2019-02-21T10:46:24.889Z,24.13
2019-02-21T10:48:52.358Z,26.73
2019-02-21T10:51:19.813Z,25.80
2019-02-21T10:53:47.370Z,21.03
2019-02-21T10:56:14.856Z,22.73
2019-02-21T10:58:43.122Z,25.93
2019-02-21T11:01:10.584Z,23.50
2019-02-21T11:03:38.150Z,24.30
2019-02-21T11:06:05.609Z,25.10
2019-02-21T11:08:33.220Z,24.33
2019-02-21T11:11:00.676Z,21.97
2019-02-21T11:13:28.165Z,20.63
2019-02-21T11:15:55.623Z,20.73
2019-02-21T11:18:23.095Z,18.07
2019-02-21T11:20:50.598Z,19.10
2019-02-21T11:23:19.239Z,20.03
2019-02-21T11:25:46.941Z,21.23
2019-02-21T11:28:14.498Z,23.70
2019-02-21T11:30:43.134Z,22.07
2019-02-21T11:33:10.663Z,20.90
2019-02-21T11:35:38.210Z,23.40
2019-02-21T11:38:05.682Z,26.27
2019-02-21T11:40:33.126Z,25.83
2019-02-21T11:43:02.655Z,25.37
2019-02-21T11:45:28.186Z,24.43
2019-02-21T11:47:55.737Z,25.60
2019-02-21T11:50:23.200Z,26.13
2019-02-21T11:52:51.481Z,25.93
2019-02-21T11:55:19.695Z,23.77
2019-02-21T11:57:47.192Z,24.33
2019-02-21T12:00:15.580Z,28.83
2019-02-21T12:02:43.055Z,25.07
2019-02-21T12:05:17.443Z,28.00
2019-02-21T12:07:38.789Z,26.73
2019-02-21T12:10:07.044Z,28.00
2019-02-21T12:12:34.569Z,26.57
2019-02-21T12:15:03.747Z,24.20
2019-02-21T12:17:31.236Z,25.43
2019-02-21T12:19:59.477Z,26.97
2019-02-21T12:22:26.950Z,24.73
2019-02-21T12:24:54.416Z,28.37
2019-02-21T12:27:21.990Z,25.37
2019-02-21T12:29:49.479Z,26.40
2019-02-21T12:32:17.006Z,29.33
2019-02-21T12:34:44.466Z,27.00
2019-02-21T12:37:11.942Z,27.83
2019-02-21T12:39:39.497Z,26.37
2019-02-21T12:42:06.990Z,29.70
2019-02-21T12:44:35.214Z,25.97
2019-02-21T12:47:03.665Z,29.63
2019-02-21T12:49:32.743Z,30.53
2019-02-21T12:51:58.631Z,27.87
2019-02-21T12:54:26.111Z,26.50
2019-02-21T12:56:53.665Z,25.63
2019-02-21T12:59:21.116Z,26.43
2019-02-21T13:01:48.598Z,26.63
2019-02-21T13:04:16.052Z,28.50
2019-02-21T13:06:43.525Z,28.77
2019-02-21T13:09:10.998Z,22.30
2019-02-21T13:11:38.476Z,23.97
2019-02-21T13:14:06.746Z,26.80
2019-02-21T13:16:35.017Z,29.40
2019-02-21T13:19:02.572Z,26.20
2019-02-21T13:21:30.027Z,28.10
2019-02-21T13:23:57.498Z,25.83
2019-02-21T13:26:25.721Z,23.73
2019-02-21T13:28:53.186Z,29.60
2019-02-21T13:31:20.697Z,25.67
2019-02-21T13:33:48.171Z,22.63
2019-02-21T13:36:15.629Z,27.27
2019-02-21T13:38:43.103Z,29.00
2019-02-21T13:41:11.367Z,26.67
2019-02-21T13:43:38.840Z,21.33
2019-02-21T13:46:07.108Z,25.57
2019-02-21T13:48:34.825Z,28.40
2019-02-21T13:51:02.449Z,24.50
2019-02-21T13:53:29.991Z,30.50
2019-02-21T13:55:57.457Z,27.93
2019-02-21T13:58:25.026Z,26.03
2019-02-21T14:00:52.535Z,26.77
2019-02-21T14:03:20.066Z,27.80
2019-02-21T14:05:48.393Z,26.60
2019-02-21T14:08:15.908Z,23.33
2019-02-21T14:10:43.369Z,26.47
2019-02-21T14:13:11.880Z,26.47
2019-02-21T14:15:39.197Z,28.53
2019-02-21T14:18:06.669Z,29.87
2019-02-21T14:20:45.067Z,28.03
2019-02-21T14:23:03.847Z,28.33
2019-02-21T14:25:40.297Z,26.27
2019-02-21T14:28:00.430Z,25.13
2019-02-21T14:30:27.885Z,27.67
2019-02-21T14:32:57.939Z,30.77
2019-02-21T14:35:25.485Z,26.37
2019-02-21T14:37:53.757Z,27.50
2019-02-21T14:40:21.995Z,27.43
2019-02-21T14:42:50.297Z,27.63
2019-02-21T14:45:18.877Z,24.00
2019-02-21T14:47:46.332Z,25.87
2019-02-21T14:50:14.015Z,27.73
2019-02-21T14:52:42.252Z,21.57
2019-02-21T14:55:13.130Z,26.10
2019-02-21T14:57:41.522Z,20.63
2019-02-21T15:00:12.435Z,18.43
2019-02-21T15:02:40.014Z,21.73
2019-02-21T15:05:10.058Z,21.00
2019-02-21T15:07:35.089Z,21.93
2019-02-21T15:10:02.554Z,23.77
2019-02-21T15:12:30.051Z,22.30
2019-02-21T15:14:57.988Z,25.73
2019-02-21T15:17:25.496Z,27.03
2019-02-21T15:19:52.974Z,21.00
2019-02-21T15:22:20.441Z,22.17
2019-02-21T15:24:47.995Z,22.00
2019-02-21T15:27:15.452Z,20.87
2019-02-21T15:29:43.720Z,22.80
2019-02-21T15:32:13.585Z,24.97
2019-02-21T15:34:38.706Z,22.67
2019-02-21T15:37:06.169Z,21.30
2019-02-21T15:39:33.627Z,18.17
2019-02-21T15:42:01.083Z,22.23
2019-02-21T15:44:28.567Z,20.20
2019-02-21T15:46:56.028Z,22.87
2019-02-21T15:49:23.721Z,20.47
2019-02-21T15:51:51.115Z,22.07
2019-02-21T15:54:19.380Z,20.23
2019-02-21T15:56:46.850Z,21.07
2019-02-21T15:59:15.081Z,19.65
2019-02-21T16:01:47.634Z,21.13
2019-02-21T16:04:10.045Z,24.33
2019-02-21T16:06:39.448Z,20.13
2019-02-21T16:09:15.942Z,18.97
2019-02-21T16:11:33.249Z,20.53
2019-02-21T16:14:03.552Z,18.17
2019-02-21T16:16:28.359Z,21.43
2019-02-21T16:18:58.706Z,20.70
2019-02-21T16:21:24.301Z,19.27
2019-02-21T16:23:51.875Z,17.43
2019-02-21T16:26:19.329Z,13.90
2019-02-21T16:28:46.898Z,21.27
2019-02-21T16:31:14.445Z,21.30
2019-02-21T16:33:41.906Z,19.10
2019-02-21T16:36:09.388Z,21.47
2019-02-21T16:38:38.376Z,17.70
2019-02-21T16:41:05.952Z,23.17
2019-02-21T16:43:33.425Z,17.97
2019-02-21T16:46:07.729Z,17.77
2019-02-21T16:48:29.144Z,18.83
2019-02-21T16:50:56.607Z,16.17
2019-02-21T16:53:24.170Z,22.57
2019-02-21T16:55:51.728Z,19.83
2019-02-21T16:58:19.192Z,17.03
2019-02-21T17:00:53.305Z,21.07
2019-02-21T17:03:14.140Z,14.53
2019-02-21T17:05:41.687Z,22.73
2019-02-21T17:08:10.662Z,20.70
2019-02-21T17:10:38.137Z,17.10
2019-02-21T17:13:05.602Z,12.73
2019-02-21T17:15:33.056Z,23.13
2019-02-21T17:18:03.862Z,20.23
2019-02-21T17:20:28.099Z,14.17
2019-02-21T17:22:57.647Z,16.67
2019-02-21T17:25:26.027Z,18.33
2019-02-21T17:27:54.273Z,18.40
2019-02-21T17:30:21.734Z,21.63
2019-02-21T17:32:49.205Z,21.27
2019-02-21T17:35:16.770Z,24.33
2019-02-21T17:37:44.328Z,18.57
2019-02-21T17:40:15.521Z,13.83
2019-02-21T17:42:42.987Z,17.77
2019-02-21T17:45:10.446Z,15.88
2019-02-21T17:47:37.903Z,17.73
2019-02-21T17:50:05.412Z,21.20
2019-02-21T17:52:32.879Z,18.97
2019-02-21T17:55:00.350Z,18.60
2019-02-21T17:57:27.809Z,16.80
2019-02-21T17:59:55.283Z,14.93
2019-02-21T18:02:22.745Z,19.70
2019-02-21T18:04:50.958Z,15.97
2019-02-21T18:07:18.468Z,23.77
2019-02-21T18:09:46.020Z,15.77
2019-02-21T18:12:13.483Z,17.13
2019-02-21T18:14:41.069Z,19.67
2019-02-21T18:17:08.614Z,17.90
2019-02-21T18:19:36.189Z,19.43
2019-02-21T18:22:04.431Z,19.47
2019-02-21T18:24:31.894Z,17.00
2019-02-21T18:26:59.390Z,16.00
2019-02-21T18:29:28.701Z,17.90
2019-02-21T18:31:56.975Z,16.67
2019-02-21T18:34:24.435Z,18.77
2019-02-21T18:36:52.006Z,14.97
2019-02-21T18:39:19.459Z,18.73
2019-02-21T18:41:46.929Z,17.37
2019-02-21T18:44:14.376Z,18.60
2019-02-21T18:46:41.951Z,19.87
2019-02-21T18:49:09.406Z,17.53
2019-02-21T18:51:36.977Z,18.87
2019-02-21T18:54:04.425Z,16.67
2019-02-21T18:56:32.011Z,20.77
2019-02-21T18:58:59.556Z,18.60
2019-02-21T19:01:27.030Z,19.87
2019-02-21T19:03:55.253Z,21.87
2019-02-21T19:06:22.872Z,14.53
2019-02-21T19:08:51.101Z,19.60
2019-02-21T19:11:18.941Z,17.70
2019-02-21T19:13:47.165Z,18.97
2019-02-21T19:16:14.665Z,20.37
2019-02-21T19:18:42.232Z,17.80
2019-02-21T19:21:09.742Z,22.30
2019-02-21T19:23:37.255Z,17.70
2019-02-21T19:26:04.817Z,17.77
2019-02-21T19:28:32.403Z,19.07
2019-02-21T19:31:03.504Z,17.63
2019-02-21T19:33:30.971Z,20.07
2019-02-21T19:35:58.460Z,21.73
2019-02-21T19:38:25.939Z,16.03
2019-02-21T19:40:54.156Z,17.17
2019-02-21T19:43:21.615Z,19.30
2019-02-21T19:45:49.086Z,20.13
2019-02-21T19:48:16.584Z,19.93
2019-02-21T19:50:44.050Z,19.37
2019-02-21T19:53:14.253Z,16.93
2019-02-21T19:55:39.077Z,17.33
2019-02-21T19:58:06.537Z,19.67
2019-02-21T20:00:34.013Z,14.87
2019-02-21T20:03:02.288Z,24.10
2019-02-21T20:05:30.616Z,14.40
2019-02-21T20:08:08.101Z,19.83
2019-02-21T20:10:25.591Z,17.77
2019-02-21T20:12:53.239Z,17.00
2019-02-21T20:15:22.176Z,18.30
2019-02-21T20:17:50.427Z,14.70
2019-02-21T20:20:26.857Z,16.47
2019-02-21T20:22:54.324Z,20.37
2019-02-21T20:25:21.787Z,17.40
2019-02-21T20:27:49.250Z,17.00
2019-02-21T20:30:16.730Z,18.43
2019-02-21T20:32:44.190Z,16.83
2019-02-21T20:35:11.650Z,15.60
2019-02-21T20:37:39.135Z,19.50
2019-02-21T20:40:07.339Z,15.30
2019-02-21T20:42:34.799Z,22.10
2019-02-21T20:45:06.705Z,18.20
2019-02-21T20:47:34.184Z,17.30
2019-02-21T20:50:01.656Z,16.93
2019-02-21T20:52:29.112Z,17.40
2019-02-21T20:54:56.566Z,15.70
2019-02-21T20:57:24.165Z,15.80
2019-02-21T20:59:52.411Z,25.60
2019-02-21T21:02:19.986Z,21.53
2019-02-21T21:04:48.233Z,22.77
2019-02-21T21:07:24.753Z,20.07
2019-02-21T21:09:43.292Z,17.73
2019-02-21T21:12:10.783Z,24.57
2019-02-21T21:14:39.040Z,23.27
2019-02-21T21:17:06.496Z,19.97
2019-02-21T21:19:36.370Z,20.80
2019-02-21T21:22:02.209Z,22.87
2019-02-21T21:24:29.672Z,21.70
2019-02-21T21:26:57.145Z,20.00
2019-02-21T21:29:24.628Z,22.03
2019-02-21T21:31:52.184Z,14.27
2019-02-21T21:34:19.659Z,22.07
2019-02-21T21:36:47.893Z,21.73
2019-02-21T21:39:15.339Z,22.53
2019-02-21T21:41:42.862Z,20.13
2019-02-21T21:44:10.326Z,19.33
2019-02-21T21:46:37.797Z,22.90
2019-02-21T21:49:05.285Z,19.23
2019-02-21T21:51:34.070Z,25.47
2019-02-21T21:54:00.404Z,18.40
2019-02-21T21:56:27.829Z,21.03
2019-02-21T21:58:55.297Z,25.63
2019-02-21T22:01:24.314Z,18.57
2019-02-21T22:03:52.556Z,19.33
2019-02-21T22:06:20.016Z,26.90
2019-02-21T22:08:47.481Z,17.70
2019-02-21T22:11:14.926Z,16.27
2019-02-21T22:13:42.410Z,22.97
2019-02-21T22:16:09.991Z,20.17
2019-02-21T22:18:37.472Z,15.73
2019-02-21T22:21:04.967Z,19.27
2019-02-21T22:23:32.473Z,19.80
2019-02-21T22:26:00.287Z,22.57
2019-02-21T22:28:27.745Z,20.83
2019-02-21T22:30:57.420Z,21.23
2019-02-21T22:33:22.821Z,17.30
2019-02-21T22:35:50.316Z,24.47
2019-02-21T22:38:17.862Z,17.27
2019-02-21T22:40:45.328Z,19.83
2019-02-21T22:43:12.796Z,19.93
2019-02-21T22:45:41.024Z,18.37
2019-02-21T22:48:08.533Z,22.30
2019-02-21T22:50:36.000Z,22.50
2019-02-21T22:53:04.255Z,19.48
2019-02-21T22:55:31.809Z,26.33
2019-02-21T22:57:59.378Z,20.47
2019-02-21T23:03:33.393Z,25.50
2019-02-21T23:09:27.171Z,29.70
2019-02-21T23:11:44.564Z,23.63
2019-02-21T23:14:12.065Z,22.87
2019-02-21T23:16:41.039Z,25.77
2019-02-21T23:19:08.513Z,20.65
2019-02-21T23:21:35.958Z,22.43
2019-02-21T23:24:04.664Z,24.35
2019-02-21T23:26:32.132Z,21.70
2019-02-21T23:28:59.598Z,22.37
2019-02-21T23:31:27.054Z,21.30
2019-02-21T23:33:55.450Z,21.63
2019-02-21T23:36:22.926Z,22.20
2019-02-21T23:38:50.493Z,20.30
2019-02-21T23:41:18.751Z,21.00
2019-02-21T23:43:47.301Z,21.00
2019-02-21T23:46:14.475Z,21.10
2019-02-21T23:48:42.280Z,22.70
2019-02-21T23:51:10.510Z,21.60
2019-02-21T23:53:37.964Z,23.40
2019-02-21T23:56:05.469Z,20.70
2019-02-21T23:58:32.936Z,23.97
